sensor_id;sensor_type;location;lat;lon;timestamp;pressure;altitude;pressure_sealevel;temperature;humidity
62072;BME280;48031;48.542;13.232;2023-06-26T00:00:24;97326.78;;;25.15;47.08
62072;BME280;48031;48.542;13.232;2023-06-26T00:04:26;97327.56;;;25.27;46.26
62072;BME280;48031;48.542;13.232;2023-06-26T00:08:28;97330.25;;;25.12;47.39
62072;BME280;48031;48.542;13.232;2023-06-26T00:12:31;97317.28;;;24.92;47.47
62072;BME280;48031;48.542;13.232;2023-06-26T00:16:34;97314.59;;;24.71;48.38
62072;BME280;48031;48.542;13.232;2023-06-26T00:20:36;97322.94;;;24.83;47.74
62072;BME280;48031;48.542;13.232;2023-06-26T00:24:39;97310.66;;;24.60;48.23
62072;BME280;48031;48.542;13.232;2023-06-26T00:28:41;97320.25;;;24.74;48.14
62072;BME280;48031;48.542;13.232;2023-06-26T00:32:43;97317.00;;;24.60;48.43
62072;BME280;48031;48.542;13.232;2023-06-26T00:36:45;97325.69;;;24.71;47.44
62072;BME280;48031;48.542;13.232;2023-06-26T00:40:47;97323.03;;;24.62;47.58
62072;BME280;48031;48.542;13.232;2023-06-26T00:44:49;97315.19;;;24.19;48.16
62072;BME280;48031;48.542;13.232;2023-06-26T00:48:52;97311.66;;;24.43;47.09
62072;BME280;48031;48.542;13.232;2023-06-26T00:52:54;97298.63;;;24.80;46.75
62072;BME280;48031;48.542;13.232;2023-06-26T00:57:02;97311.13;;;24.62;46.92
62072;BME280;48031;48.542;13.232;2023-06-26T01:01:04;97311.78;;;24.34;47.79
62072;BME280;48031;48.542;13.232;2023-06-26T01:05:14;97304.50;;;24.42;47.88
62072;BME280;48031;48.542;13.232;2023-06-26T01:09:24;97306.34;;;24.38;47.70
62072;BME280;48031;48.542;13.232;2023-06-26T01:13:28;97292.63;;;24.78;46.70
62072;BME280;48031;48.542;13.232;2023-06-26T01:17:32;97296.06;;;24.51;46.87
62072;BME280;48031;48.542;13.232;2023-06-26T01:21:37;97290.81;;;24.94;46.36
62072;BME280;48031;48.542;13.232;2023-06-26T01:30:20;97293.00;;;24.89;46.18
62072;BME280;48031;48.542;13.232;2023-06-26T01:34:23;97303.81;;;23.79;49.56
62072;BME280;48031;48.542;13.232;2023-06-26T01:38:24;97310.78;;;23.65;50.46
62072;BME280;48031;48.542;13.232;2023-06-26T01:42:34;97301.56;;;23.93;49.54
62072;BME280;48031;48.542;13.232;2023-06-26T01:47:01;97305.47;;;23.92;49.10
62072;BME280;48031;48.542;13.232;2023-06-26T01:51:04;97303.84;;;23.91;49.16
62072;BME280;48031;48.542;13.232;2023-06-26T01:59:10;97304.06;;;23.86;49.55
62072;BME280;48031;48.542;13.232;2023-06-26T02:03:13;97312.47;;;24.11;48.54
62072;BME280;48031;48.542;13.232;2023-06-26T02:07:15;97303.91;;;24.03;48.64
62072;BME280;48031;48.542;13.232;2023-06-26T02:11:17;97304.44;;;24.18;48.10
62072;BME280;48031;48.542;13.232;2023-06-26T02:15:20;97307.78;;;23.90;48.93
62072;BME280;48031;48.542;13.232;2023-06-26T02:19:22;97311.16;;;23.96;49.04
62072;BME280;48031;48.542;13.232;2023-06-26T02:23:26;97314.69;;;23.43;50.44
62072;BME280;48031;48.542;13.232;2023-06-26T02:27:28;97313.75;;;23.59;49.91
62072;BME280;48031;48.542;13.232;2023-06-26T02:31:30;97307.09;;;23.93;48.35
62072;BME280;48031;48.542;13.232;2023-06-26T02:35:32;97316.44;;;23.89;48.36
62072;BME280;48031;48.542;13.232;2023-06-26T02:39:36;97309.00;;;24.14;48.18
62072;BME280;48031;48.542;13.232;2023-06-26T02:43:39;97319.34;;;23.92;48.43
62072;BME280;48031;48.542;13.232;2023-06-26T02:47:41;97320.66;;;23.53;49.18
62072;BME280;48031;48.542;13.232;2023-06-26T02:51:45;97322.03;;;23.68;49.21
62072;BME280;48031;48.542;13.232;2023-06-26T02:55:54;97321.75;;;23.61;49.37
62072;BME280;48031;48.542;13.232;2023-06-26T02:59:56;97317.47;;;23.84;48.45
62072;BME280;48031;48.542;13.232;2023-06-26T03:03:58;97316.03;;;23.57;49.30
62072;BME280;48031;48.542;13.232;2023-06-26T03:08:03;97317.25;;;23.69;49.37
62072;BME280;48031;48.542;13.232;2023-06-26T03:12:06;97310.63;;;23.40;50.02
62072;BME280;48031;48.542;13.232;2023-06-26T03:16:08;97321.00;;;24.06;48.47
62072;BME280;48031;48.542;13.232;2023-06-26T03:20:10;97321.91;;;23.97;48.50
62072;BME280;48031;48.542;13.232;2023-06-26T03:24:25;97322.81;;;23.89;48.68
62072;BME280;48031;48.542;13.232;2023-06-26T03:28:28;97324.34;;;23.99;48.52
62072;BME280;48031;48.542;13.232;2023-06-26T03:32:31;97330.47;;;24.04;48.32
62072;BME280;48031;48.542;13.232;2023-06-26T03:36:33;97325.63;;;24.01;48.69
62072;BME280;48031;48.542;13.232;2023-06-26T03:40:35;97335.53;;;24.02;48.41
62072;BME280;48031;48.542;13.232;2023-06-26T03:44:37;97334.53;;;24.28;47.66
62072;BME280;48031;48.542;13.232;2023-06-26T03:48:40;97339.94;;;24.24;48.08
62072;BME280;48031;48.542;13.232;2023-06-26T03:52:43;97353.09;;;23.94;48.66
62072;BME280;48031;48.542;13.232;2023-06-26T03:56:47;97341.72;;;24.41;47.69
62072;BME280;48031;48.542;13.232;2023-06-26T04:00:49;97339.34;;;24.19;48.12
62072;BME280;48031;48.542;13.232;2023-06-26T04:04:51;97337.00;;;24.54;47.17
62072;BME280;48031;48.542;13.232;2023-06-26T04:08:55;97333.19;;;24.58;47.30
62072;BME280;48031;48.542;13.232;2023-06-26T04:12:57;97337.16;;;24.57;46.99
62072;BME280;48031;48.542;13.232;2023-06-26T04:16:59;97348.66;;;24.47;47.42
62072;BME280;48031;48.542;13.232;2023-06-26T04:21:12;97346.81;;;24.39;47.85
62072;BME280;48031;48.542;13.232;2023-06-26T04:25:14;97346.44;;;24.28;48.62
62072;BME280;48031;48.542;13.232;2023-06-26T04:29:16;97353.78;;;24.24;48.49
62072;BME280;48031;48.542;13.232;2023-06-26T04:33:19;97342.34;;;24.71;47.74
62072;BME280;48031;48.542;13.232;2023-06-26T04:37:22;97347.84;;;24.34;48.51
62072;BME280;48031;48.542;13.232;2023-06-26T04:41:25;97348.16;;;24.78;47.61
62072;BME280;48031;48.542;13.232;2023-06-26T04:45:27;97346.53;;;24.77;48.12
62072;BME280;48031;48.542;13.232;2023-06-26T04:49:29;97347.78;;;24.67;47.79
62072;BME280;48031;48.542;13.232;2023-06-26T04:53:31;97337.31;;;24.97;47.05
62072;BME280;48031;48.542;13.232;2023-06-26T04:57:34;97338.00;;;24.94;47.37
62072;BME280;48031;48.542;13.232;2023-06-26T05:01:36;97341.59;;;24.37;49.32
62072;BME280;48031;48.542;13.232;2023-06-26T05:05:41;97341.78;;;24.77;48.01
62072;BME280;48031;48.542;13.232;2023-06-26T05:09:43;97344.94;;;25.24;47.67
62072;BME280;48031;48.542;13.232;2023-06-26T05:13:45;97344.81;;;24.97;48.95
62072;BME280;48031;48.542;13.232;2023-06-26T05:17:47;97347.84;;;25.40;48.20
62072;BME280;48031;48.542;13.232;2023-06-26T05:21:50;97350.34;;;25.97;46.57
62072;BME280;48031;48.542;13.232;2023-06-26T05:25:53;97352.19;;;25.65;45.79
62072;BME280;48031;48.542;13.232;2023-06-26T05:29:56;97353.25;;;25.61;45.96
62072;BME280;48031;48.542;13.232;2023-06-26T05:34:02;97337.41;;;25.37;47.77
62072;BME280;48031;48.542;13.232;2023-06-26T05:38:05;97330.94;;;25.09;49.08
62072;BME280;48031;48.542;13.232;2023-06-26T05:42:08;97339.59;;;25.56;47.65
62072;BME280;48031;48.542;13.232;2023-06-26T05:46:10;97341.97;;;25.82;47.72
62072;BME280;48031;48.542;13.232;2023-06-26T05:50:13;97338.03;;;25.83;47.84
62072;BME280;48031;48.542;13.232;2023-06-26T05:54:15;97336.09;;;25.99;47.25
62072;BME280;48031;48.542;13.232;2023-06-26T05:58:17;97340.53;;;25.88;48.26
62072;BME280;48031;48.542;13.232;2023-06-26T06:02:21;97340.47;;;25.72;48.75
62072;BME280;48031;48.542;13.232;2023-06-26T06:06:23;97338.84;;;25.83;47.48
62072;BME280;48031;48.542;13.232;2023-06-26T06:10:25;97341.38;;;26.16;47.74
62072;BME280;48031;48.542;13.232;2023-06-26T06:14:28;97329.78;;;26.14;47.20
62072;BME280;48031;48.542;13.232;2023-06-26T06:18:30;97349.91;;;26.35;45.34
62072;BME280;48031;48.542;13.232;2023-06-26T06:22:32;97344.47;;;26.27;45.06
62072;BME280;48031;48.542;13.232;2023-06-26T06:26:35;97343.94;;;26.80;43.39
62072;BME280;48031;48.542;13.232;2023-06-26T06:30:37;97346.81;;;27.00;43.84
62072;BME280;48031;48.542;13.232;2023-06-26T06:34:47;97340.53;;;27.03;44.81
62072;BME280;48031;48.542;13.232;2023-06-26T06:38:49;97340.63;;;27.06;43.38
62072;BME280;48031;48.542;13.232;2023-06-26T06:42:51;97350.09;;;27.37;42.79
62072;BME280;48031;48.542;13.232;2023-06-26T06:46:53;97353.53;;;26.83;44.02
62072;BME280;48031;48.542;13.232;2023-06-26T06:50:55;97349.56;;;26.53;43.38
62072;BME280;48031;48.542;13.232;2023-06-26T06:54:58;97343.84;;;27.24;42.80
62072;BME280;48031;48.542;13.232;2023-06-26T06:59:07;97332.72;;;27.59;41.40
62072;BME280;48031;48.542;13.232;2023-06-26T07:03:09;97333.78;;;27.89;41.09
62072;BME280;48031;48.542;13.232;2023-06-26T07:07:12;97327.75;;;28.45;39.93
62072;BME280;48031;48.542;13.232;2023-06-26T07:11:15;97332.78;;;28.59;40.72
62072;BME280;48031;48.542;13.232;2023-06-26T07:15:17;97334.84;;;28.62;40.95
62072;BME280;48031;48.542;13.232;2023-06-26T07:19:19;97326.19;;;28.89;39.87
62072;BME280;48031;48.542;13.232;2023-06-26T07:23:22;97333.50;;;28.33;41.54
62072;BME280;48031;48.542;13.232;2023-06-26T07:27:24;97320.63;;;28.47;41.41
62072;BME280;48031;48.542;13.232;2023-06-26T07:31:27;97333.00;;;28.69;39.54
62072;BME280;48031;48.542;13.232;2023-06-26T07:35:29;97329.88;;;29.20;39.21
62072;BME280;48031;48.542;13.232;2023-06-26T07:39:31;97330.59;;;28.90;39.35
62072;BME280;48031;48.542;13.232;2023-06-26T07:43:33;97335.41;;;28.93;37.71
62072;BME280;48031;48.542;13.232;2023-06-26T07:47:36;97325.94;;;29.77;38.57
62072;BME280;48031;48.542;13.232;2023-06-26T07:51:39;97322.25;;;29.99;37.55
62072;BME280;48031;48.542;13.232;2023-06-26T07:55:41;97326.56;;;29.63;37.76
62072;BME280;48031;48.542;13.232;2023-06-26T07:59:43;97325.38;;;29.38;37.49
62072;BME280;48031;48.542;13.232;2023-06-26T08:03:45;97331.38;;;30.26;38.04
62072;BME280;48031;48.542;13.232;2023-06-26T08:07:47;97330.72;;;29.76;38.22
62072;BME280;48031;48.542;13.232;2023-06-26T08:11:50;97327.63;;;30.15;36.62
62072;BME280;48031;48.542;13.232;2023-06-26T08:15:52;97331.53;;;30.37;36.88
62072;BME280;48031;48.542;13.232;2023-06-26T08:19:54;97330.13;;;30.53;37.84
62072;BME280;48031;48.542;13.232;2023-06-26T08:23:57;97328.38;;;30.79;36.93
62072;BME280;48031;48.542;13.232;2023-06-26T08:27:59;97327.69;;;30.19;38.38
62072;BME280;48031;48.542;13.232;2023-06-26T08:32:01;97335.94;;;30.75;37.24
62072;BME280;48031;48.542;13.232;2023-06-26T08:36:06;97332.97;;;31.01;35.62
62072;BME280;48031;48.542;13.232;2023-06-26T08:40:08;97325.47;;;31.60;36.59
62072;BME280;48031;48.542;13.232;2023-06-26T08:44:11;97326.06;;;31.35;34.86
62072;BME280;48031;48.542;13.232;2023-06-26T08:48:14;97313.06;;;31.68;35.04
62072;BME280;48031;48.542;13.232;2023-06-26T08:52:20;97312.47;;;31.37;37.48
62072;BME280;48031;48.542;13.232;2023-06-26T08:56:30;97318.66;;;32.58;35.31
62072;BME280;48031;48.542;13.232;2023-06-26T09:00:34;97313.63;;;32.05;33.77
62072;BME280;48031;48.542;13.232;2023-06-26T09:04:36;97304.59;;;32.61;32.55
62072;BME280;48031;48.542;13.232;2023-06-26T09:08:39;97304.50;;;32.23;34.01
62072;BME280;48031;48.542;13.232;2023-06-26T09:12:46;97305.78;;;32.46;35.97
62072;BME280;48031;48.542;13.232;2023-06-26T09:16:49;97304.91;;;32.17;34.08
62072;BME280;48031;48.542;13.232;2023-06-26T09:20:51;97300.66;;;32.77;35.05
62072;BME280;48031;48.542;13.232;2023-06-26T09:24:56;97295.41;;;32.89;32.51
62072;BME280;48031;48.542;13.232;2023-06-26T09:28:58;97290.63;;;33.04;33.21
62072;BME280;48031;48.542;13.232;2023-06-26T09:33:20;97291.00;;;32.71;32.03
62072;BME280;48031;48.542;13.232;2023-06-26T09:37:23;97283.75;;;33.33;32.45
62072;BME280;48031;48.542;13.232;2023-06-26T09:41:26;97284.94;;;33.50;32.31
62072;BME280;48031;48.542;13.232;2023-06-26T09:45:28;97291.41;;;33.33;32.80
62072;BME280;48031;48.542;13.232;2023-06-26T09:49:30;97275.91;;;34.12;29.75
62072;BME280;48031;48.542;13.232;2023-06-26T09:53:35;97279.97;;;34.04;29.12
62072;BME280;48031;48.542;13.232;2023-06-26T09:57:38;97276.06;;;34.60;28.17
62072;BME280;48031;48.542;13.232;2023-06-26T10:01:41;97273.31;;;33.48;30.32
62072;BME280;48031;48.542;13.232;2023-06-26T10:05:44;97270.88;;;34.51;29.68
62072;BME280;48031;48.542;13.232;2023-06-26T10:09:50;97278.56;;;35.02;29.52
62072;BME280;48031;48.542;13.232;2023-06-26T10:13:55;97270.00;;;35.13;27.14
62072;BME280;48031;48.542;13.232;2023-06-26T10:18:09;97257.09;;;35.19;27.79
62072;BME280;48031;48.542;13.232;2023-06-26T10:22:17;97259.84;;;37.12;23.94
62072;BME280;48031;48.542;13.232;2023-06-26T10:26:21;97247.94;;;37.87;23.95
62072;BME280;48031;48.542;13.232;2023-06-26T10:30:27;97254.03;;;39.58;21.84
62072;BME280;48031;48.542;13.232;2023-06-26T10:34:30;97257.72;;;39.87;21.84
62072;BME280;48031;48.542;13.232;2023-06-26T10:38:49;97246.72;;;40.69;20.69
62072;BME280;48031;48.542;13.232;2023-06-26T10:43:05;97245.38;;;41.12;20.88
62072;BME280;48031;48.542;13.232;2023-06-26T10:47:09;97240.91;;;41.10;18.72
62072;BME280;48031;48.542;13.232;2023-06-26T10:51:15;97243.34;;;42.24;17.30
62072;BME280;48031;48.542;13.232;2023-06-26T10:55:17;97243.69;;;43.56;15.61
62072;BME280;48031;48.542;13.232;2023-06-26T10:59:20;97239.63;;;43.07;16.45
62072;BME280;48031;48.542;13.232;2023-06-26T11:03:23;97221.44;;;44.98;14.83
62072;BME280;48031;48.542;13.232;2023-06-26T11:07:26;97208.84;;;47.29;13.49
62072;BME280;48031;48.542;13.232;2023-06-26T11:15:54;97215.41;;;47.14;12.33
62072;BME280;48031;48.542;13.232;2023-06-26T11:19:58;97209.88;;;49.06;11.54
62072;BME280;48031;48.542;13.232;2023-06-26T11:24:05;97204.94;;;52.08;9.62
62072;BME280;48031;48.542;13.232;2023-06-26T11:28:09;97204.91;;;51.61;9.98
62072;BME280;48031;48.542;13.232;2023-06-26T11:32:11;97203.97;;;57.80;5.61
62072;BME280;48031;48.542;13.232;2023-06-26T11:36:13;97205.59;;;53.87;8.17
62072;BME280;48031;48.542;13.232;2023-06-26T11:40:19;97204.84;;;55.14;6.31
62072;BME280;48031;48.542;13.232;2023-06-26T11:44:21;97196.78;;;56.96;5.63
62072;BME280;48031;48.542;13.232;2023-06-26T11:48:25;97194.66;;;54.12;6.44
62072;BME280;48031;48.542;13.232;2023-06-26T11:52:27;97206.09;;;56.94;5.36
62072;BME280;48031;48.542;13.232;2023-06-26T11:56:29;97208.50;;;57.60;5.72
62072;BME280;48031;48.542;13.232;2023-06-26T12:00:31;97198.34;;;59.32;3.92
62072;BME280;48031;48.542;13.232;2023-06-26T12:04:36;97192.44;;;60.10;4.05
62072;BME280;48031;48.542;13.232;2023-06-26T12:08:38;97184.97;;;60.49;3.10
62072;BME280;48031;48.542;13.232;2023-06-26T12:12:41;97172.03;;;59.79;3.46
62072;BME280;48031;48.542;13.232;2023-06-26T12:16:43;97177.22;;;63.23;3.30
62072;BME280;48031;48.542;13.232;2023-06-26T12:20:45;97145.47;;;58.77;3.84
62072;BME280;48031;48.542;13.232;2023-06-26T12:24:48;97151.78;;;60.63;3.95
62072;BME280;48031;48.542;13.232;2023-06-26T12:28:50;97139.16;;;59.33;3.20
62072;BME280;48031;48.542;13.232;2023-06-26T12:32:52;97149.03;;;61.76;3.59
62072;BME280;48031;48.542;13.232;2023-06-26T12:37:02;97143.47;;;60.77;2.78
62072;BME280;48031;48.542;13.232;2023-06-26T12:41:05;97131.97;;;57.26;4.70
62072;BME280;48031;48.542;13.232;2023-06-26T12:45:11;97115.59;;;61.20;2.87
62072;BME280;48031;48.542;13.232;2023-06-26T12:49:38;97099.00;;;58.20;2.99
62072;BME280;48031;48.542;13.232;2023-06-26T12:53:41;97100.63;;;57.26;4.14
62072;BME280;48031;48.542;13.232;2023-06-26T12:57:44;97104.91;;;58.50;3.68
62072;BME280;48031;48.542;13.232;2023-06-26T13:01:46;97098.03;;;58.32;4.80
62072;BME280;48031;48.542;13.232;2023-06-26T13:05:48;97107.75;;;63.59;2.15
62072;BME280;48031;48.542;13.232;2023-06-26T13:09:50;97098.56;;;61.70;2.68
62072;BME280;48031;48.542;13.232;2023-06-26T13:13:52;97081.94;;;60.37;3.10
62072;BME280;48031;48.542;13.232;2023-06-26T13:18:12;97090.78;;;61.65;2.46
62072;BME280;48031;48.542;13.232;2023-06-26T13:22:14;97076.59;;;61.71;2.73
62072;BME280;48031;48.542;13.232;2023-06-26T13:26:16;97063.69;;;57.44;4.11
62072;BME280;48031;48.542;13.232;2023-06-26T13:30:35;97067.09;;;60.35;3.33
62072;BME280;48031;48.542;13.232;2023-06-26T13:34:37;97053.75;;;60.84;2.67
62072;BME280;48031;48.542;13.232;2023-06-26T13:38:39;97047.00;;;62.13;1.45
62072;BME280;48031;48.542;13.232;2023-06-26T13:42:42;97034.28;;;55.32;5.34
62072;BME280;48031;48.542;13.232;2023-06-26T13:46:46;97030.44;;;59.62;3.49
62072;BME280;48031;48.542;13.232;2023-06-26T13:50:48;97027.16;;;53.45;5.61
62072;BME280;48031;48.542;13.232;2023-06-26T13:54:55;97024.09;;;51.62;6.99
62072;BME280;48031;48.542;13.232;2023-06-26T13:58:57;97021.81;;;43.82;12.69
62072;BME280;48031;48.542;13.232;2023-06-26T14:03:01;97021.56;;;53.10;6.33
62072;BME280;48031;48.542;13.232;2023-06-26T14:07:04;97022.66;;;60.81;2.65
62072;BME280;48031;48.542;13.232;2023-06-26T14:11:06;97009.31;;;58.15;3.70
62072;BME280;48031;48.542;13.232;2023-06-26T14:15:09;97008.50;;;58.75;3.34
62072;BME280;48031;48.542;13.232;2023-06-26T14:19:11;97011.09;;;46.98;10.19
62072;BME280;48031;48.542;13.232;2023-06-26T14:23:16;97003.16;;;44.38;12.07
62072;BME280;48031;48.542;13.232;2023-06-26T14:27:18;96993.06;;;42.61;14.30
62072;BME280;48031;48.542;13.232;2023-06-26T14:31:20;96999.16;;;53.48;6.78
62072;BME280;48031;48.542;13.232;2023-06-26T14:35:23;97006.41;;;56.33;4.51
62072;BME280;48031;48.542;13.232;2023-06-26T14:39:25;96990.00;;;50.01;7.70
62072;BME280;48031;48.542;13.232;2023-06-26T14:43:27;96982.13;;;46.61;9.99
62072;BME280;48031;48.542;13.232;2023-06-26T14:47:30;96980.59;;;44.07;12.77
62072;BME280;48031;48.542;13.232;2023-06-26T14:51:32;96980.72;;;41.35;15.89
62072;BME280;48031;48.542;13.232;2023-06-26T14:55:34;96965.28;;;44.10;13.23
62072;BME280;48031;48.542;13.232;2023-06-26T14:59:37;96974.94;;;40.26;15.95
62072;BME280;48031;48.542;13.232;2023-06-26T15:03:40;96970.00;;;42.19;17.15
62072;BME280;48031;48.542;13.232;2023-06-26T15:07:42;96975.81;;;42.74;15.97
62072;BME280;48031;48.542;13.232;2023-06-26T15:11:44;96974.31;;;42.24;14.95
62072;BME280;48031;48.542;13.232;2023-06-26T15:15:46;96960.72;;;42.55;14.13
62072;BME280;48031;48.542;13.232;2023-06-26T15:19:48;96957.84;;;40.95;16.55
62072;BME280;48031;48.542;13.232;2023-06-26T15:23:51;96960.47;;;40.34;15.33
62072;BME280;48031;48.542;13.232;2023-06-26T15:27:53;96949.00;;;41.02;15.29
62072;BME280;48031;48.542;13.232;2023-06-26T15:31:55;96943.72;;;41.75;15.33
62072;BME280;48031;48.542;13.232;2023-06-26T15:35:58;96944.97;;;42.23;14.76
62072;BME280;48031;48.542;13.232;2023-06-26T15:40:00;96944.81;;;42.27;15.14
62072;BME280;48031;48.542;13.232;2023-06-26T15:44:05;96936.66;;;39.93;16.43
62072;BME280;48031;48.542;13.232;2023-06-26T15:48:08;96934.81;;;42.13;14.75
62072;BME280;48031;48.542;13.232;2023-06-26T15:52:10;96937.28;;;41.53;15.76
62072;BME280;48031;48.542;13.232;2023-06-26T15:56:12;96920.53;;;41.02;16.26
62072;BME280;48031;48.542;13.232;2023-06-26T16:00:19;96917.03;;;41.91;15.67
62072;BME280;48031;48.542;13.232;2023-06-26T16:04:21;96917.72;;;43.88;14.63
62072;BME280;48031;48.542;13.232;2023-06-26T16:08:23;96916.03;;;40.92;16.18
62072;BME280;48031;48.542;13.232;2023-06-26T16:12:26;96913.78;;;41.09;16.61
62072;BME280;48031;48.542;13.232;2023-06-26T16:16:28;96906.81;;;41.41;16.35
62072;BME280;48031;48.542;13.232;2023-06-26T16:20:30;96903.72;;;41.48;17.91
62072;BME280;48031;48.542;13.232;2023-06-26T16:24:32;96892.16;;;41.21;18.18
62072;BME280;48031;48.542;13.232;2023-06-26T16:28:35;96886.34;;;41.64;16.60
62072;BME280;48031;48.542;13.232;2023-06-26T16:32:38;96882.84;;;40.98;18.11
62072;BME280;48031;48.542;13.232;2023-06-26T16:36:41;96883.47;;;41.55;17.67
62072;BME280;48031;48.542;13.232;2023-06-26T16:40:44;96870.31;;;42.52;15.92
62072;BME280;48031;48.542;13.232;2023-06-26T16:44:46;96861.22;;;43.98;13.70
62072;BME280;48031;48.542;13.232;2023-06-26T16:48:48;96860.00;;;43.66;15.41
62072;BME280;48031;48.542;13.232;2023-06-26T16:52:51;96852.53;;;44.55;14.14
62072;BME280;48031;48.542;13.232;2023-06-26T16:56:53;96861.72;;;43.31;14.57
62072;BME280;48031;48.542;13.232;2023-06-26T17:00:55;96865.69;;;42.82;15.11
62072;BME280;48031;48.542;13.232;2023-06-26T17:04:58;96860.47;;;41.99;16.65
62072;BME280;48031;48.542;13.232;2023-06-26T17:09:00;96862.72;;;41.55;17.14
62072;BME280;48031;48.542;13.232;2023-06-26T17:13:02;96862.53;;;39.75;18.45
62072;BME280;48031;48.542;13.232;2023-06-26T17:17:04;96863.84;;;39.36;19.81
62072;BME280;48031;48.542;13.232;2023-06-26T17:21:06;96867.91;;;38.26;21.26
62072;BME280;48031;48.542;13.232;2023-06-26T17:25:09;96861.56;;;38.22;20.96
62072;BME280;48031;48.542;13.232;2023-06-26T17:29:13;96861.50;;;38.39;20.83
62072;BME280;48031;48.542;13.232;2023-06-26T17:33:15;96860.19;;;38.27;21.00
62072;BME280;48031;48.542;13.232;2023-06-26T17:37:20;96860.44;;;37.87;22.96
62072;BME280;48031;48.542;13.232;2023-06-26T17:41:24;96854.81;;;37.71;23.00
62072;BME280;48031;48.542;13.232;2023-06-26T17:45:26;96851.78;;;37.62;22.00
62072;BME280;48031;48.542;13.232;2023-06-26T17:49:30;96860.13;;;37.69;22.85
62072;BME280;48031;48.542;13.232;2023-06-26T17:53:33;96861.44;;;37.16;24.74
62072;BME280;48031;48.542;13.232;2023-06-26T17:57:35;96866.84;;;36.51;24.80
62072;BME280;48031;48.542;13.232;2023-06-26T18:01:38;96871.34;;;36.49;24.97
62072;BME280;48031;48.542;13.232;2023-06-26T18:05:40;96878.22;;;35.85;27.41
62072;BME280;48031;48.542;13.232;2023-06-26T18:09:43;96882.22;;;35.88;26.70
62072;BME280;48031;48.542;13.232;2023-06-26T18:13:45;96886.38;;;35.79;26.69
62072;BME280;48031;48.542;13.232;2023-06-26T18:17:47;96897.16;;;35.88;26.29
62072;BME280;48031;48.542;13.232;2023-06-26T18:21:50;96913.63;;;35.66;27.75
62072;BME280;48031;48.542;13.232;2023-06-26T18:25:52;96894.69;;;35.40;28.83
62072;BME280;48031;48.542;13.232;2023-06-26T18:29:54;96906.34;;;35.15;28.45
62072;BME280;48031;48.542;13.232;2023-06-26T18:33:56;96898.53;;;34.99;28.49
62072;BME280;48031;48.542;13.232;2023-06-26T18:37:59;96893.78;;;34.93;27.96
62072;BME280;48031;48.542;13.232;2023-06-26T18:42:01;96910.72;;;34.59;29.67
62072;BME280;48031;48.542;13.232;2023-06-26T18:46:05;96911.31;;;34.43;31.65
62072;BME280;48031;48.542;13.232;2023-06-26T18:50:07;96918.25;;;34.35;30.37
62072;BME280;48031;48.542;13.232;2023-06-26T18:54:09;96923.28;;;34.13;30.72
62072;BME280;48031;48.542;13.232;2023-06-26T18:58:12;96919.72;;;34.06;30.74
62072;BME280;48031;48.542;13.232;2023-06-26T19:02:14;96923.81;;;34.01;29.75
62072;BME280;48031;48.542;13.232;2023-06-26T19:06:17;96924.44;;;33.78;28.99
62072;BME280;48031;48.542;13.232;2023-06-26T19:10:19;96943.38;;;33.74;28.88
62072;BME280;48031;48.542;13.232;2023-06-26T19:14:21;96942.63;;;33.70;29.15
62072;BME280;48031;48.542;13.232;2023-06-26T19:18:23;96946.47;;;33.35;29.23
62072;BME280;48031;48.542;13.232;2023-06-26T19:22:28;96951.09;;;33.63;29.31
62072;BME280;48031;48.542;13.232;2023-06-26T19:26:32;96950.13;;;33.32;30.58
62072;BME280;48031;48.542;13.232;2023-06-26T19:30:36;96957.09;;;32.99;30.21
62072;BME280;48031;48.542;13.232;2023-06-26T19:34:38;96965.16;;;32.94;30.36
62072;BME280;48031;48.542;13.232;2023-06-26T19:38:41;96981.06;;;32.03;30.54
62072;BME280;48031;48.542;13.232;2023-06-26T19:42:42;96998.28;;;32.05;30.21
62072;BME280;48031;48.542;13.232;2023-06-26T19:46:45;97007.81;;;31.22;32.01
62072;BME280;48031;48.542;13.232;2023-06-26T19:50:46;97008.31;;;31.63;32.16
62072;BME280;48031;48.542;13.232;2023-06-26T19:54:49;97019.03;;;31.15;34.40
62072;BME280;48031;48.542;13.232;2023-06-26T19:58:51;97008.66;;;31.26;36.00
62072;BME280;48031;48.542;13.232;2023-06-26T20:02:53;97012.31;;;31.62;34.13
62072;BME280;48031;48.542;13.232;2023-06-26T20:06:57;97032.97;;;31.01;35.44
62072;BME280;48031;48.542;13.232;2023-06-26T20:11:07;97034.31;;;31.46;34.73
62072;BME280;48031;48.542;13.232;2023-06-26T20:15:10;97042.31;;;31.33;35.68
62072;BME280;48031;48.542;13.232;2023-06-26T20:19:12;97036.69;;;31.33;35.96
62072;BME280;48031;48.542;13.232;2023-06-26T20:23:14;97046.31;;;31.29;36.01
62072;BME280;48031;48.542;13.232;2023-06-26T20:27:16;97045.63;;;31.64;36.32
62072;BME280;48031;48.542;13.232;2023-06-26T20:31:18;97057.25;;;31.94;35.53
62072;BME280;48031;48.542;13.232;2023-06-26T20:35:21;97052.84;;;32.46;34.55
62072;BME280;48031;48.542;13.232;2023-06-26T20:39:23;97053.66;;;32.11;35.26
62072;BME280;48031;48.542;13.232;2023-06-26T20:43:29;97059.16;;;31.41;36.63
62072;BME280;48031;48.542;13.232;2023-06-26T20:47:31;97061.53;;;31.24;37.39
62072;BME280;48031;48.542;13.232;2023-06-26T20:51:36;97063.00;;;30.97;38.14
62072;BME280;48031;48.542;13.232;2023-06-26T20:55:40;97067.06;;;31.07;38.02
62072;BME280;48031;48.542;13.232;2023-06-26T20:59:42;97071.13;;;30.47;39.31
62072;BME280;48031;48.542;13.232;2023-06-26T21:03:45;97069.38;;;30.32;38.62
62072;BME280;48031;48.542;13.232;2023-06-26T21:07:47;97077.31;;;29.79;39.17
62072;BME280;48031;48.542;13.232;2023-06-26T21:11:49;97077.59;;;30.59;36.96
62072;BME280;48031;48.542;13.232;2023-06-26T21:15:51;97073.13;;;30.50;37.54
62072;BME280;48031;48.542;13.232;2023-06-26T21:19:53;97064.25;;;30.45;37.01
62072;BME280;48031;48.542;13.232;2023-06-26T21:23:57;97065.59;;;30.10;37.11
62072;BME280;48031;48.542;13.232;2023-06-26T21:27:59;97074.69;;;29.97;37.10